Terminal Aerodrome Forecast
Issued by NWS Flagstaff, AZ

Home | Current Version | Previous Version | Text Only | Print | Product List | Glossary On
Versions: 1 2 3 4 5 6 7 8 9 10 11 12 13 14
000
FTUS45 KFGZ 281700 RRA
TAFINW
TAF
KINW 281741Z 2818/0118 22012KT P6SM SCT035 OVC045
      TEMPO 2818/2819 5SM -SHRA OVC030
     FM281900 22024G36KT P6SM SCT030 BKN050
      TEMPO 2819/2823 5SM -SHRA OVC030
     FM010130 21015G22KT P6SM SCT050 BKN070
     FM010500 22012KT P6SM SCT030 OVC045
     FM011600 20013KT P6SM VCSH SCT020 OVC035=

USA.gov is the U.S. government's official web portal to all federal, state and local government web resources and services.